Time;durP1;ratioP1;P1;durP2;ratioP2;P2;SDS_P1;SDS_P2;PMS_P1;PMS_P2;Temp;Humidity;BMP_temperature;BMP_pressure;BME280_temperature;BME280_humidity;BME280_pressure;Samples;Min_cycle;Max_cycle;Signal;HPM_P1;HPM_P2
2022/10/10 00:00:38;;;;;;;;;;;7.70;99.90;;;;;;5076188;28;20040;-80
2022/10/10 00:03:05;;;;;;;5.45;2.90;;;8.50;99.90;;;;;;5074878;28;19924;-80
2022/10/10 00:05:30;;;;;;;5.32;2.95;;;7.60;99.90;;;;;;5075761;28;20044;-80
2022/10/10 00:07:56;;;;;;;4.95;3.20;;;7.60;99.90;;;;;;5075697;28;20575;-80
2022/10/10 00:10:21;;;;;;;6.82;2.92;;;6.90;99.90;;;;;;5075582;28;20045;-80
2022/10/10 00:12:47;;;;;;;4.32;2.80;;;8.80;99.90;;;;;;5075599;28;20546;-80
2022/10/10 00:15:14;;;;;;;8.60;3.45;;;7.50;99.90;;;;;;5075596;28;20062;-80
2022/10/10 00:17:42;;;;;;;5.50;3.42;;;7.50;99.90;;;;;;5073614;28;20459;-81
2022/10/10 00:20:09;;;;;;;4.32;2.58;;;7.90;99.90;;;;;;5074279;28;20044;-80
2022/10/10 00:22:34;;;;;;;4.13;3.00;;;7.50;99.90;;;;;;5075313;28;20102;-80
2022/10/10 00:25:00;;;;;;;4.35;2.85;;;7.40;99.90;;;;;;5075365;28;20438;-80
2022/10/10 00:27:25;;;;;;;4.28;2.80;;;7.40;99.90;;;;;;5074985;28;20051;-80
2022/10/10 00:29:51;;;;;;;5.82;2.70;;;7.40;99.90;;;;;;5074142;28;20090;-80
2022/10/10 00:32:16;;;;;;;5.70;2.88;;;7.40;99.90;;;;;;5075483;28;20503;-80
2022/10/10 00:34:42;;;;;;;4.75;3.20;;;7.40;99.90;;;;;;5074601;28;20044;-80
2022/10/10 00:37:08;;;;;;;4.93;2.92;;;7.40;99.90;;;;;;5075079;28;20044;-80
2022/10/10 00:39:33;;;;;;;5.38;3.28;;;7.40;99.90;;;;;;5075054;28;20045;-80
2022/10/10 00:41:59;;;;;;;4.45;3.03;;;7.40;99.90;;;;;;5073352;28;20044;-80
2022/10/10 00:44:26;;;;;;;7.38;3.13;;;6.70;99.90;;;;;;5075440;28;20150;-80
2022/10/10 00:46:52;;;;;;;5.47;3.00;;;7.30;99.90;;;;;;5074636;28;20044;-80
2022/10/10 00:49:24;;;;;;;5.28;3.03;;;7.30;99.90;;;;;;5074743;28;20036;-80
2022/10/10 00:51:52;;;;;;;5.18;3.00;;;7.00;99.90;;;;;;5074833;28;20174;-80
2022/10/10 00:54:20;;;;;;;6.78;2.97;;;7.20;99.90;;;;;;5074449;28;20511;-80
2022/10/10 00:56:56;;;;;;;5.97;3.13;;;7.30;99.90;;;;;;5074710;28;20375;-80
2022/10/10 00:59:23;;;;;;;5.93;3.10;;;7.30;99.90;;;;;;5074714;28;20086;-80
2022/10/10 01:01:49;;;;;;;5.07;3.35;;;6.90;99.90;;;;;;5074890;28;20058;-80
2022/10/10 01:04:47;;;;;;;5.65;3.50;;;7.20;99.90;;;;;;5074548;28;20127;-80
2022/10/10 01:07:17;;;;;;;5.38;3.15;;;6.80;99.90;;;;;;5051496;28;20508;-80
2022/10/10 01:09:44;;;;;;;7.43;3.22;;;7.50;99.90;;;;;;5074500;28;20036;-80
2022/10/10 01:12:28;;;;;;;;;;;7.10;99.90;;;;;;5074878;28;20556;-80
2022/10/10 01:15:07;;;;;;;6.60;3.58;;;7.10;99.90;;;;;;5074450;28;19925;-80
2022/10/10 01:18:08;;;;;;;5.32;3.17;;;7.00;99.90;;;;;;5074404;28;20048;-81
2022/10/10 01:20:51;;;;;;;6.07;3.40;;;7.00;99.90;;;;;;5038791;28;20095;-80
2022/10/10 01:23:54;;;;;;;5.40;3.47;;;7.00;99.90;;;;;;5074229;28;20098;-80
2022/10/10 01:26:53;;;;;;;5.05;3.33;;;7.00;99.90;;;;;;5074194;28;20082;-80
2022/10/10 01:29:33;;;;;;;5.93;3.70;;;6.90;99.90;;;;;;5074130;28;20040;-80
2022/10/10 01:32:07;;;;;;;5.07;3.13;;;6.90;99.90;;;;;;5073830;28;20040;-80
2022/10/10 01:34:41;;;;;;;11.05;3.50;;;7.10;99.90;;;;;;5074511;28;20054;-80
2022/10/10 01:37:17;;;;;;;7.45;3.50;;;6.90;99.90;;;;;;5073833;28;20450;-80
2022/10/10 01:39:55;;;;;;;6.18;3.72;;;6.90;99.90;;;;;;5073998;28;20040;-80
2022/10/10 01:42:30;;;;;;;4.78;3.53;;;6.80;99.90;;;;;;5073879;28;20053;-81
2022/10/10 01:44:56;;;;;;;7.43;3.88;;;6.80;99.90;;;;;;5073214;28;20044;-80
2022/10/10 01:47:22;;;;;;;7.18;3.40;;;6.80;99.90;;;;;;5073892;28;20040;-80
2022/10/10 01:49:52;;;;;;;8.07;3.53;;;6.70;99.90;;;;;;5073843;28;20041;-80
2022/10/10 01:52:26;;;;;;;7.28;3.78;;;6.70;99.90;;;;;;5072746;28;20131;-80
2022/10/10 01:55:29;;;;;;;9.68;3.30;;;6.70;99.90;;;;;;5073869;28;20055;-80
2022/10/10 01:58:21;;;;;;;6.13;4.18;;;6.70;99.90;;;;;;5073771;28;20044;-80
2022/10/10 02:01:04;;;;;;;8.98;3.50;;;6.60;99.90;;;;;;5073726;28;20123;-80
2022/10/10 02:03:36;;;;;;;6.03;3.80;;;6.60;99.90;;;;;;5072710;28;20052;-81
2022/10/10 02:06:11;;;;;;;5.28;3.78;;;7.10;99.90;;;;;;5073732;28;20044;-80
2022/10/10 02:08:44;;;;;;;6.65;3.78;;;6.60;99.90;;;;;;5073615;28;20040;-80
2022/10/10 02:11:11;;;;;;;9.20;4.03;;;6.70;99.90;;;;;;5073679;28;20052;-80
2022/10/10 02:13:44;;;;;;;5.18;3.45;;;6.60;99.90;;;;;;5073785;28;20054;-80
2022/10/10 02:16:17;;;;;;;6.50;4.07;;;6.60;99.90;;;;;;5074134;28;20055;-80
2022/10/10 02:18:46;;;;;;;6.25;3.83;;;6.60;99.90;;;;;;5073911;28;20395;-80
2022/10/10 02:21:13;;;;;;;5.32;3.92;;;6.60;99.90;;;;;;5073493;28;20041;-80
2022/10/10 02:23:42;;;;;;;;;;;6.60;99.90;;;;;;5073960;28;20127;-80
2022/10/10 02:26:11;;;;;;;7.07;3.63;;;6.60;99.90;;;;;;5073443;28;19920;-80
2022/10/10 02:28:52;;;;;;;5.28;3.50;;;6.60;99.90;;;;;;5073437;28;20067;-80
2022/10/10 02:31:28;;;;;;;6.93;3.55;;;6.60;99.90;;;;;;5073773;28;20051;-80
2022/10/10 02:34:00;;;;;;;6.68;3.78;;;6.60;99.90;;;;;;5072820;28;20071;-80
2022/10/10 02:36:27;;;;;;;4.85;3.85;;;6.90;99.90;;;;;;5073184;28;20044;-81
2022/10/10 02:38:54;;;;;;;9.48;3.97;;;6.60;99.90;;;;;;5073290;28;20045;-80
2022/10/10 02:41:21;;;;;;;6.00;4.22;;;6.60;99.90;;;;;;5075970;28;20105;-80
2022/10/10 02:43:48;;;;;;;8.25;3.75;;;6.60;99.90;;;;;;5076975;28;20572;-80
2022/10/10 02:46:14;;;;;;;7.25;4.13;;;6.50;99.90;;;;;;5076063;28;20048;-80
2022/10/10 02:48:40;;;;;;;7.03;4.03;;;6.50;99.90;;;;;;5077175;28;20041;-80
2022/10/10 02:51:06;;;;;;;8.15;4.20;;;6.50;99.90;;;;;;5077168;28;20047;-80
2022/10/10 02:53:35;;;;;;;7.32;3.90;;;6.40;99.90;;;;;;5077004;28;20052;-80
2022/10/10 02:56:01;;;;;;;9.57;4.40;;;6.40;99.90;;;;;;5077257;28;20160;-80
2022/10/10 02:58:26;;;;;;;8.40;3.50;;;6.40;99.90;;;;;;5075865;28;20469;-80
2022/10/10 03:00:52;;;;;;;5.40;4.25;;;6.40;99.90;;;;;;5076982;28;20040;-80
2022/10/10 03:03:18;;;;;;;5.28;3.78;;;6.40;99.90;;;;;;5075736;28;20089;-80
2022/10/10 03:05:43;;;;;;;6.00;3.70;;;6.30;99.90;;;;;;5076052;28;20052;-80
2022/10/10 03:08:09;;;;;;;5.68;3.65;;;6.40;99.90;;;;;;5076738;28;20040;-80
2022/10/10 03:10:35;;;;;;;9.00;4.35;;;6.30;99.90;;;;;;5077368;28;20123;-80
2022/10/10 03:13:00;;;;;;;6.38;3.60;;;6.30;99.90;;;;;;5076709;28;20503;-80
2022/10/10 03:15:26;;;;;;;7.15;4.15;;;6.30;99.90;;;;;;5076687;28;20051;-80
2022/10/10 03:17:51;;;;;;;8.30;4.30;;;6.30;99.90;;;;;;5076621;28;20156;-80
2022/10/10 03:20:17;;;;;;;5.95;4.07;;;6.30;99.90;;;;;;5076619;28;20048;-80
2022/10/10 03:22:42;;;;;;;6.18;3.67;;;6.20;99.90;;;;;;5076467;28;20535;-80
2022/10/10 03:25:08;;;;;;;4.65;3.28;;;6.20;99.90;;;;;;5076499;28;20045;-80
2022/10/10 03:27:34;;;;;;;6.80;3.92;;;6.30;99.90;;;;;;5076428;28;20048;-80
2022/10/10 03:29:59;;;;;;;4.32;3.58;;;6.20;99.90;;;;;;5076392;28;20036;-80
2022/10/10 03:32:25;;;;;;;7.18;4.28;;;6.20;99.90;;;;;;5076234;28;20048;-80
2022/10/10 03:34:50;;;;;;;7.63;4.20;;;6.20;99.90;;;;;;5076317;28;20048;-80
2022/10/10 03:37:16;;;;;;;6.22;3.97;;;6.20;99.90;;;;;;5076203;28;20389;-80
2022/10/10 03:39:41;;;;;;;8.75;4.05;;;6.20;99.90;;;;;;5076278;28;20043;-80
2022/10/10 03:42:07;;;;;;;6.93;4.60;;;6.20;99.90;;;;;;5076131;28;20114;-80
2022/10/10 03:44:33;;;;;;;6.35;3.92;;;6.20;99.90;;;;;;5076498;28;20056;-80
2022/10/10 03:46:58;;;;;;;6.45;4.05;;;6.10;99.90;;;;;;5076214;28;20076;-80
2022/10/10 03:49:24;;;;;;;6.88;4.15;;;6.10;99.90;;;;;;5076049;28;20041;-80
2022/10/10 03:51:49;;;;;;;8.55;4.50;;;6.10;99.90;;;;;;5074923;28;20043;-80
2022/10/10 03:54:15;;;;;;;5.47;4.15;;;6.10;99.90;;;;;;5075989;28;20118;-80
2022/10/10 03:56:41;;;;;;;5.00;3.90;;;6.10;99.90;;;;;;5075897;28;20084;-80
2022/10/10 03:59:06;;;;;;;6.75;4.40;;;6.00;99.90;;;;;;5076270;28;20037;-80
2022/10/10 04:01:33;;;;;;;7.38;4.25;;;6.10;99.90;;;;;;5074731;28;20044;-80
2022/10/10 04:03:59;;;;;;;9.02;4.40;;;6.10;99.90;;;;;;5076025;28;20036;-80
2022/10/10 04:06:24;;;;;;;8.32;4.85;;;6.00;99.90;;;;;;5075790;28;20051;-80
2022/10/10 04:08:50;;;;;;;7.25;4.18;;;6.00;99.90;;;;;;5075609;28;20123;-80
2022/10/10 04:11:16;;;;;;;7.55;3.92;;;6.00;99.90;;;;;;5075609;28;20392;-80
2022/10/10 04:13:41;;;;;;;8.68;4.03;;;6.00;99.90;;;;;;5075992;28;20044;-80
2022/10/10 04:16:07;;;;;;;7.63;4.70;;;6.00;99.90;;;;;;5075695;28;20051;-80
2022/10/10 04:18:32;;;;;;;8.45;4.10;;;6.00;99.90;;;;;;5075569;28;20036;-80
2022/10/10 04:21:04;;;;;;;7.00;4.57;;;6.00;99.90;;;;;;5074566;28;20041;-80
2022/10/10 04:23:30;;;;;;;6.80;4.40;;;6.00;99.90;;;;;;5075169;28;20485;-80
2022/10/10 04:25:55;;;;;;;5.65;4.18;;;5.90;99.90;;;;;;5075255;28;20040;-80
2022/10/10 04:28:21;;;;;;;7.60;4.55;;;6.00;99.90;;;;;;5075374;28;20116;-80
2022/10/10 04:30:47;;;;;;;7.20;4.47;;;5.90;99.90;;;;;;5075258;28;20040;-80
2022/10/10 04:33:12;;;;;;;6.10;3.63;;;6.00;99.90;;;;;;5074616;28;20373;-80
2022/10/10 04:35:38;;;;;;;7.43;5.30;;;5.90;99.90;;;;;;5074345;28;20040;-80
2022/10/10 04:38:05;;;;;;;6.13;4.13;;;6.00;99.90;;;;;;5075061;28;20157;-80
2022/10/10 04:40:30;;;;;;;5.43;3.92;;;5.90;99.90;;;;;;5075020;28;20036;-80
2022/10/10 04:42:56;;;;;;;6.45;3.70;;;5.90;99.90;;;;;;5075359;28;20397;-80
2022/10/10 04:45:25;;;;;;;8.82;4.28;;;5.90;99.90;;;;;;5074964;28;20151;-80
2022/10/10 04:47:52;;;;;;;7.70;4.35;;;5.90;99.90;;;;;;5074931;28;20122;-80
2022/10/10 04:50:18;;;;;;;6.45;4.75;;;5.90;99.90;;;;;;5074795;28;20044;-80
2022/10/10 04:52:43;;;;;;;7.43;4.38;;;5.90;99.90;;;;;;5074654;28;20131;-80
2022/10/10 04:55:09;;;;;;;6.30;4.90;;;5.90;99.90;;;;;;5073564;28;20472;-80
2022/10/10 04:57:35;;;;;;;6.25;5.03;;;5.90;99.90;;;;;;5074576;28;20041;-80
2022/10/10 05:00:00;;;;;;;7.70;4.18;;;5.80;99.90;;;;;;5074309;28;20370;-80
2022/10/10 05:02:26;;;;;;;9.27;5.00;;;5.80;99.90;;;;;;5074263;28;20048;-80
2022/10/10 05:04:51;;;;;;;9.63;4.60;;;5.80;99.90;;;;;;5073494;28;20045;-80
2022/10/10 05:07:17;;;;;;;6.32;4.20;;;5.80;99.90;;;;;;5074323;28;20044;-80
2022/10/10 05:09:42;;;;;;;8.52;4.35;;;5.80;99.90;;;;;;5074864;28;20045;-80
2022/10/10 05:12:08;;;;;;;9.68;4.50;;;5.80;99.90;;;;;;5074806;28;20071;-80
2022/10/10 05:14:34;;;;;;;9.07;3.95;;;5.80;99.90;;;;;;5074374;28;20488;-80
2022/10/10 05:16:59;;;;;;;7.63;5.07;;;5.80;99.90;;;;;;5074311;28;20076;-82
2022/10/10 05:19:25;;;;;;;7.40;4.22;;;5.80;99.90;;;;;;5074302;28;20547;-81
2022/10/10 05:21:50;;;;;;;5.65;3.80;;;5.80;99.90;;;;;;5074293;28;20044;-79
2022/10/10 05:24:16;;;;;;;7.15;4.55;;;5.80;99.90;;;;;;5075025;28;20094;-79
2022/10/10 05:26:41;;;;;;;6.55;4.50;;;5.80;99.90;;;;;;5074154;28;20489;-79
2022/10/10 05:29:07;;;;;;;6.65;4.57;;;5.80;99.90;;;;;;5074069;28;20082;-84
2022/10/10 05:31:33;;;;;;;6.97;4.55;;;5.70;99.90;;;;;;5072950;28;20056;-82
2022/10/10 05:33:59;;;;;;;6.20;4.00;;;5.70;99.90;;;;;;5073377;28;20047;-83
2022/10/10 05:36:25;;;;;;;7.50;4.90;;;5.70;99.90;;;;;;5074016;28;20472;-81
2022/10/10 05:38:50;;;;;;;9.63;5.03;;;5.70;99.90;;;;;;5072771;28;20051;-81
2022/10/10 05:41:16;;;;;;;5.75;3.95;;;5.70;99.90;;;;;;5072792;28;20428;-81
2022/10/10 05:43:42;;;;;;;6.30;4.60;;;5.70;99.90;;;;;;5039922;28;20053;-84
2022/10/10 05:46:07;;;;;;;6.15;3.78;;;5.70;99.90;;;;;;5072764;28;20472;-82
2022/10/10 05:48:33;;;;;;;8.27;4.95;;;5.70;99.90;;;;;;5056326;28;20037;-82
2022/10/10 05:50:59;;;;;;;9.95;4.72;;;5.70;99.90;;;;;;5072491;28;20082;-83
2022/10/10 05:53:26;;;;;;;7.63;3.55;;;5.70;99.90;;;;;;5072718;28;20048;-83
2022/10/10 05:55:52;;;;;;;7.47;4.47;;;5.70;99.90;;;;;;5073784;28;20471;-82
2022/10/10 05:58:17;;;;;;;8.27;4.90;;;5.80;99.90;;;;;;5073753;28;20095;-82
2022/10/10 06:00:45;;;;;;;7.95;4.28;;;5.60;99.90;;;;;;5073773;28;20040;-82
2022/10/10 06:03:13;;;;;;;7.57;4.65;;;5.60;99.90;;;;;;5072863;28;20052;-80
2022/10/10 06:05:40;;;;;;;10.50;4.38;;;5.60;99.90;;;;;;5073691;28;20040;-78
2022/10/10 06:08:06;;;;;;;5.90;4.50;;;5.60;99.90;;;;;;5073679;28;20054;-79
2022/10/10 06:10:36;;;;;;;6.03;3.80;;;5.60;99.90;;;;;;5072393;28;20055;-78
2022/10/10 06:13:01;;;;;;;6.55;4.70;;;5.60;99.90;;;;;;5073612;28;20048;-80
2022/10/10 06:15:27;;;;;;;6.22;4.63;;;5.60;99.90;;;;;;5072912;28;20044;-80
2022/10/10 06:17:53;;;;;;;10.30;4.88;;;5.60;99.90;;;;;;5073481;28;20049;-82
2022/10/10 06:20:18;;;;;;;9.10;5.47;;;5.70;99.90;;;;;;5073632;28;20090;-80
2022/10/10 06:22:44;;;;;;;6.93;4.53;;;5.70;99.90;;;;;;5073138;28;20399;-79
2022/10/10 06:25:09;;;;;;;9.20;5.00;;;5.70;99.90;;;;;;5073464;28;20044;-79
2022/10/10 06:27:35;;;;;;;8.93;4.43;;;5.70;99.90;;;;;;5072322;28;20041;-78
2022/10/10 06:30:00;;;;;;;8.55;4.40;;;5.70;99.90;;;;;;5073432;28;20041;-77
2022/10/10 06:32:26;;;;;;;6.35;5.15;;;5.80;99.90;;;;;;5073536;28;20426;-78
2022/10/10 06:34:51;;;;;;;7.75;4.65;;;5.80;99.90;;;;;;5073354;28;20051;-77
2022/10/10 06:37:17;;;;;;;8.00;4.90;;;5.80;99.90;;;;;;5073305;28;20085;-80
2022/10/10 06:39:43;;;;;;;6.63;4.53;;;5.90;99.90;;;;;;5072393;28;20492;-76
2022/10/10 06:42:08;;;;;;;7.70;4.85;;;5.90;99.90;;;;;;5072211;28;20182;-77
2022/10/10 06:44:34;;;;;;;7.65;4.57;;;5.90;99.90;;;;;;5073684;28;20193;-77
2022/10/10 06:46:59;;;;;;;7.55;5.20;;;6.00;99.90;;;;;;5073327;28;20047;-80
2022/10/10 06:49:25;;;;;;;9.80;4.88;;;5.40;99.90;;;;;;5073280;28;20044;-78
2022/10/10 06:51:50;;;;;;;8.68;4.45;;;6.10;99.90;;;;;;5073194;28;20040;-77
2022/10/10 06:54:16;;;;;;;6.43;4.53;;;6.20;99.90;;;;;;5073278;28;20052;-78
2022/10/10 06:56:42;;;;;;;7.40;5.03;;;6.30;99.90;;;;;;5073253;28;20041;-77
2022/10/10 06:59:07;;;;;;;7.13;4.93;;;6.30;99.90;;;;;;5072037;28;20485;-78
2022/10/10 07:01:33;;;;;;;6.35;4.75;;;6.50;99.90;;;;;;5072315;28;20121;-78
2022/10/10 07:03:58;;;;;;;9.70;5.03;;;6.50;99.90;;;;;;5073006;28;20127;-78
2022/10/10 07:06:24;;;;;;;7.22;5.45;;;6.70;99.90;;;;;;5071560;28;20468;-78
2022/10/10 07:08:49;;;;;;;8.90;4.88;;;6.70;99.90;;;;;;5073661;28;20102;-78
2022/10/10 07:11:15;;;;;;;8.35;4.38;;;6.80;99.90;;;;;;5073381;28;20047;-78
2022/10/10 07:13:41;;;;;;;6.70;4.65;;;6.90;99.90;;;;;;5073131;28;20106;-78
2022/10/10 07:16:06;;;;;;;12.23;5.13;;;7.10;99.90;;;;;;5071855;28;20036;-78
2022/10/10 07:18:34;;;;;;;8.27;4.97;;;7.20;99.90;;;;;;5073222;28;20043;-78
2022/10/10 07:21:00;;;;;;;9.23;4.90;;;7.40;99.90;;;;;;5072863;28;20499;-78
2022/10/10 07:23:27;;;;;;;8.25;4.63;;;7.50;99.90;;;;;;5073425;28;20044;-78
2022/10/10 07:26:06;;;;;;;10.00;4.50;;;7.70;99.90;;;;;;5074394;28;20048;-77
2022/10/10 07:28:32;;;;;;;7.78;4.80;;;7.90;99.90;;;;;;5076567;28;20049;-77
2022/10/10 07:31:03;;;;;;;11.65;4.50;;;8.00;99.90;;;;;;5076444;28;20040;-78
2022/10/10 07:33:35;;;;;;;11.15;5.40;;;8.20;99.90;;;;;;5076362;28;20041;-78
2022/10/10 07:36:01;;;;;;;7.65;5.03;;;8.40;99.90;;;;;;5076372;28;20083;-78
2022/10/10 07:38:27;;;;;;;13.07;4.55;;;8.50;99.90;;;;;;5076338;28;20072;-78
2022/10/10 07:40:52;;;;;;;7.90;4.70;;;8.40;99.90;;;;;;5076286;28;20049;-78
2022/10/10 07:43:18;;;;;;;10.80;4.65;;;8.80;99.90;;;;;;5076201;28;20052;-78
2022/10/10 07:45:43;;;;;;;6.35;4.70;;;9.00;99.90;;;;;;5076259;28;20048;-78
2022/10/10 07:48:09;;;;;;;7.68;4.43;;;9.10;99.90;;;;;;5076162;28;20087;-78
2022/10/10 07:50:35;;;;;;;7.03;4.75;;;9.20;99.90;;;;;;5076058;28;20040;-78
2022/10/10 07:53:00;;;;;;;7.75;5.30;;;9.30;99.90;;;;;;5076115;28;20072;-78
2022/10/10 07:55:26;;;;;;;12.30;4.78;;;9.40;99.90;;;;;;5076377;28;20064;-77
2022/10/10 07:57:52;;;;;;;8.13;4.57;;;9.50;99.90;;;;;;5076191;28;20127;-78
2022/10/10 08:00:17;;;;;;;6.00;4.55;;;9.50;99.90;;;;;;5076036;28;20040;-78
2022/10/10 08:02:43;;;;;;;7.15;4.25;;;9.60;99.90;;;;;;5075850;28;20101;-78
2022/10/10 08:05:08;;;;;;;7.90;4.05;;;9.60;99.90;;;;;;5075742;28;20040;-77
2022/10/10 08:07:34;;;;;;;9.00;4.35;;;9.70;99.90;;;;;;5075554;28;20366;-78
2022/10/10 08:10:01;;;;;;;7.38;4.75;;;9.40;99.90;;;;;;5075658;28;20036;-77
2022/10/10 08:12:27;;;;;;;7.72;4.95;;;10.40;99.90;;;;;;5075640;28;20040;-78
2022/10/10 08:14:52;;;;;;;6.60;4.85;;;10.00;99.90;;;;;;5075912;28;20048;-78
2022/10/10 08:17:18;;;;;;;9.85;4.63;;;10.10;99.90;;;;;;5075654;28;20044;-78
2022/10/10 08:19:43;;;;;;;10.30;4.70;;;10.20;99.90;;;;;;5075486;28;20044;-77
2022/10/10 08:22:09;;;;;;;7.80;4.70;;;10.40;99.90;;;;;;5075461;28;20046;-77
2022/10/10 08:24:34;;;;;;;7.78;5.25;;;11.20;99.90;;;;;;5075454;28;20040;-78
2022/10/10 08:27:00;;;;;;;7.65;4.70;;;10.60;99.90;;;;;;5075440;28;20047;-78
2022/10/10 08:29:26;;;;;;;10.07;5.13;;;10.70;99.90;;;;;;5074967;28;20139;-78
2022/10/10 08:31:51;;;;;;;7.38;4.45;;;10.80;99.90;;;;;;5075335;28;20047;-78
2022/10/10 08:34:17;;;;;;;13.23;5.00;;;10.90;99.90;;;;;;5074315;28;20052;-78
2022/10/10 08:36:42;;;;;;;12.38;4.68;;;11.50;99.90;;;;;;5074831;28;20041;-77
2022/10/10 08:39:09;;;;;;;6.97;4.68;;;11.20;99.90;;;;;;5074670;28;20037;-78
2022/10/10 08:41:44;;;;;;;;;;;11.80;99.90;;;;;;5075457;28;20052;-77
2022/10/10 08:44:27;;;;;;;6.28;4.57;;;11.30;99.90;;;;;;5075473;28;19920;-78
2022/10/10 08:46:59;;;;;;;9.02;5.05;;;11.40;99.90;;;;;;5074994;28;20127;-78
2022/10/10 08:49:45;;;;;;;8.93;4.80;;;12.20;99.90;;;;;;5075310;28;20051;-78
2022/10/10 08:52:34;;;;;;;8.15;4.78;;;11.60;99.90;;;;;;5075218;28;20094;-78
2022/10/10 08:55:06;;;;;;;7.88;5.00;;;11.70;99.90;;;;;;5074859;28;20127;-77
2022/10/10 08:57:49;;;;;;;10.38;5.35;;;11.80;99.90;;;;;;5074864;28;20036;-78
2022/10/10 09:00:19;;;;;;;7.30;4.80;;;11.80;99.90;;;;;;5075064;28;20401;-78
2022/10/10 09:02:59;;;;;;;9.55;5.00;;;11.80;99.90;;;;;;5074820;28;20476;-78
2022/10/10 09:05:40;;;;;;;9.50;5.07;;;11.90;99.90;;;;;;5074783;28;20051;-78
2022/10/10 09:08:13;;;;;;;8.70;5.22;;;12.00;99.90;;;;;;5075009;28;20044;-78
2022/10/10 09:10:55;;;;;;;10.20;5.53;;;11.90;99.90;;;;;;5074828;28;20040;-78
2022/10/10 09:13:35;;;;;;;9.25;4.75;;;11.90;99.90;;;;;;5074572;28;20487;-77
2022/10/10 09:16:30;;;;;;;10.50;5.28;;;12.00;99.90;;;;;;5074496;28;20400;-78
2022/10/10 09:19:23;;;;;;;8.38;5.07;;;12.10;99.90;;;;;;5073266;28;20066;-78
2022/10/10 09:22:00;;;;;;;7.95;5.13;;;12.10;99.90;;;;;;5074279;28;20044;-78
2022/10/10 09:24:35;;;;;;;9.75;5.43;;;12.10;99.90;;;;;;5074270;28;20141;-78
2022/10/10 09:27:04;;;;;;;8.57;5.15;;;11.80;99.90;;;;;;5074682;28;20111;-78
2022/10/10 09:29:42;;;;;;;10.13;5.43;;;12.20;99.90;;;;;;5074075;28;20396;-78
2022/10/10 09:32:14;;;;;;;12.52;6.05;;;12.30;99.90;;;;;;5074238;28;20105;-78
2022/10/10 09:34:44;;;;;;;6.82;5.10;;;12.30;99.90;;;;;;5074122;28;20048;-78
2022/10/10 09:37:22;;;;;;;10.35;5.90;;;12.40;99.90;;;;;;5074891;28;20373;-78
2022/10/10 09:39:59;;;;;;;10.15;5.43;;;12.30;99.90;;;;;;5074044;28;20047;-78
2022/10/10 09:42:34;;;;;;;9.27;5.97;;;12.40;99.90;;;;;;5074079;28;20053;-78
2022/10/10 09:45:00;;;;;;;8.18;5.53;;;12.40;99.90;;;;;;5074170;28;20052;-78
2022/10/10 09:47:27;;;;;;;9.40;5.50;;;12.50;99.90;;;;;;5073874;28;20055;-78
2022/10/10 09:49:53;;;;;;;8.05;5.38;;;12.50;99.90;;;;;;5072673;28;20040;-78
2022/10/10 09:52:26;;;;;;;12.23;6.18;;;12.60;99.90;;;;;;5073911;28;20051;-78
2022/10/10 09:55:01;;;;;;;9.65;5.75;;;12.60;99.90;;;;;;5073852;28;20040;-78
2022/10/10 09:57:39;;;;;;;6.93;5.78;;;12.70;99.90;;;;;;5073762;28;20120;-77
2022/10/10 10:00:24;;;;;;;11.18;5.85;;;12.80;99.90;;;;;;5073595;28;20052;-78
2022/10/10 10:03:11;;;;;;;10.13;6.18;;;12.90;99.90;;;;;;5073794;28;20040;-77
2022/10/10 10:05:37;;;;;;;7.82;5.57;;;13.10;99.90;;;;;;5073674;28;20045;-78
2022/10/10 10:08:03;;;;;;;7.75;5.50;;;13.20;99.90;;;;;;5073699;28;20053;-77
2022/10/10 10:10:34;;;;;;;8.02;5.70;;;13.60;99.90;;;;;;5073574;28;20036;-77
2022/10/10 10:13:00;;;;;;;9.75;6.05;;;13.80;99.90;;;;;;5073639;28;20055;-78
2022/10/10 10:15:29;;;;;;;9.48;5.60;;;14.00;99.90;;;;;;5073694;28;20048;-78
2022/10/10 10:18:18;;;;;;;10.65;5.55;;;14.10;99.90;;;;;;5073552;28;20089;-78
2022/10/10 10:20:46;;;;;;;8.65;5.43;;;14.20;99.90;;;;;;5073561;28;20094;-77
2022/10/10 10:23:30;;;;;;;8.93;5.38;;;14.20;99.90;;;;;;5073544;28;20049;-78
2022/10/10 10:26:00;;;;;;;9.43;6.10;;;14.30;99.90;;;;;;5073897;28;20087;-78
2022/10/10 10:28:26;;;;;;;8.80;5.35;;;14.30;99.90;;;;;;5073770;28;20052;-78
2022/10/10 10:30:56;;;;;;;10.10;5.47;;;14.40;99.90;;;;;;5073629;28;20476;-77
2022/10/10 10:34:09;;;;;;;7.00;5.60;;;14.50;99.90;;;;;;5073482;28;20032;-78
2022/10/10 10:36:37;;;;;;;8.43;5.82;;;14.60;99.90;;;;;;5071653;28;20443;-78
2022/10/10 10:39:40;;;;;;;8.13;5.50;;;14.70;99.90;;;;;;5073593;28;20408;-78
2022/10/10 10:42:11;;;;;;;9.73;5.47;;;14.70;99.90;;;;;;5073393;28;20037;-78
2022/10/10 10:44:55;;;;;;;8.48;5.70;;;15.00;99.90;;;;;;5072654;28;20048;-78
2022/10/10 10:48:22;;;;;;;7.95;5.88;;;14.80;99.90;;;;;;5072767;28;20052;-78
2022/10/10 10:51:23;;;;;;;11.55;6.28;;;14.80;99.90;;;;;;5050853;28;20053;-78
2022/10/10 10:54:18;;;;;;;8.00;6.40;;;14.70;99.90;;;;;;5046931;28;20114;-78
2022/10/10 10:56:55;;;;;;;11.40;6.20;;;14.80;99.90;;;;;;5073529;28;20166;-78
2022/10/10 10:59:44;;;;;;;9.95;6.00;;;15.20;99.90;;;;;;5073650;28;20063;-78
2022/10/10 11:02:09;;;;;;;7.85;6.15;;;14.80;99.90;;;;;;5076188;28;20081;-78
2022/10/10 11:04:47;;;;;;;11.77;5.77;;;14.90;99.90;;;;;;5076971;28;20044;-78
2022/10/10 11:07:22;;;;;;;8.93;5.70;;;15.00;99.90;;;;;;5076972;28;20041;-78
2022/10/10 11:09:47;;;;;;;8.00;5.93;;;15.10;99.90;;;;;;5076771;28;20033;-78
2022/10/10 11:12:41;;;;;;;7.43;5.43;;;15.20;99.90;;;;;;5077334;28;20053;-78
2022/10/10 11:15:21;;;;;;;8.63;5.65;;;15.30;99.90;;;;;;5076406;28;20511;-78
2022/10/10 11:18:07;;;;;;;7.15;5.55;;;15.30;99.90;;;;;;5076671;28;20044;-78
2022/10/10 11:21:02;;;;;;;9.43;5.57;;;15.30;99.90;;;;;;5077055;28;20056;-78
2022/10/10 11:23:38;;;;;;;10.88;5.80;;;15.20;99.90;;;;;;5076586;28;20059;-78
2022/10/10 11:26:26;;;;;;;11.05;6.00;;;15.10;99.90;;;;;;5077024;28;20040;-78
2022/10/10 11:28:55;;;;;;;;;;;15.10;99.90;;;;;;5076380;28;20086;-78
2022/10/10 11:31:23;;;;;;;;;;;15.10;99.90;;;;;;5076946;28;20014;-78
2022/10/10 11:33:55;;;;;;;9.18;5.80;;;14.70;99.90;;;;;;5076439;28;20296;-78
2022/10/10 11:36:24;;;;;;;9.02;5.63;;;14.80;99.90;;;;;;5076430;28;20056;-78
2022/10/10 11:39:19;;;;;;;8.57;5.28;;;15.30;99.90;;;;;;5076019;28;20500;-78
2022/10/10 11:42:10;;;;;;;9.45;5.25;;;15.30;99.90;;;;;;5074218;28;20052;-78
2022/10/10 11:44:40;;;;;;;9.68;6.00;;;15.30;99.90;;;;;;5076179;28;20555;-78
2022/10/10 11:47:34;;;;;;;10.30;5.95;;;15.30;99.90;;;;;;5076172;28;20136;-78
2022/10/10 11:50:27;;;;;;;9.68;5.38;;;15.30;99.90;;;;;;5076168;28;20043;-78
2022/10/10 11:53:13;;;;;;;8.00;5.47;;;15.20;99.90;;;;;;5076076;28;20040;-78
2022/10/10 11:56:09;;;;;;;10.20;5.75;;;15.20;99.90;;;;;;5076519;28;20053;-78
2022/10/10 11:58:37;;;;;;;8.82;5.60;;;15.20;99.90;;;;;;5076152;28;20048;-78
2022/10/10 12:01:16;;;;;;;7.45;5.63;;;14.70;99.90;;;;;;5075605;28;20559;-78
2022/10/10 12:03:42;;;;;;;7.57;5.00;;;15.30;99.90;;;;;;5076375;28;20049;-78
2022/10/10 12:06:44;;;;;;;11.07;6.07;;;15.10;99.90;;;;;;5075877;28;20044;-78
2022/10/10 12:09:44;;;;;;;11.25;6.05;;;15.20;99.90;;;;;;5070670;28;20068;-78
2022/10/10 12:12:22;;;;;;;10.85;5.80;;;15.00;99.90;;;;;;5062607;28;20052;-78
2022/10/10 12:14:53;;;;;;;8.10;5.50;;;15.40;99.90;;;;;;5075707;28;20036;-78
2022/10/10 12:17:32;;;;;;;10.43;5.63;;;15.00;99.90;;;;;;5075722;28;20040;-78
2022/10/10 12:20:15;;;;;;;10.45;6.10;;;15.10;99.90;;;;;;5075609;28;20036;-78
2022/10/10 12:22:42;;;;;;;9.85;6.00;;;15.20;99.90;;;;;;5075577;28;20135;-78
2022/10/10 12:25:17;;;;;;;11.15;6.50;;;14.70;99.90;;;;;;5075477;28;20395;-78
2022/10/10 12:28:01;;;;;;;11.45;6.45;;;14.70;99.90;;;;;;5075720;28;20052;-78
2022/10/10 12:30:27;;;;;;;14.43;7.75;;;14.40;99.90;;;;;;5075212;28;20041;-78
2022/10/10 12:32:54;;;;;;;14.13;7.20;;;14.70;99.90;;;;;;5075351;28;20153;-78
2022/10/10 12:35:27;;;;;;;;;;;14.80;99.90;;;;;;5075712;28;20094;-78
2022/10/10 12:38:04;;;;;;;9.13;6.25;;;14.70;99.90;;;;;;5075156;28;20118;-78
2022/10/10 12:40:32;;;;;;;7.53;5.28;;;14.40;99.90;;;;;;5075290;28;20048;-78
2022/10/10 12:43:22;;;;;;;9.55;6.07;;;14.70;99.90;;;;;;5075016;28;20083;-78
2022/10/10 12:46:08;;;;;;;7.88;5.15;;;14.80;99.90;;;;;;5075109;28;20047;-78
2022/10/10 12:48:34;;;;;;;9.35;5.65;;;14.80;99.90;;;;;;5074892;28;20048;-78
2022/10/10 12:51:01;;;;;;;11.55;5.28;;;14.80;99.90;;;;;;5074845;28;20084;-78
2022/10/10 12:53:30;;;;;;;6.93;4.30;;;14.50;99.90;;;;;;5074848;28;20084;-78
2022/10/10 12:55:59;;;;;;;7.45;4.47;;;14.50;99.90;;;;;;5074827;28;20151;-78
2022/10/10 12:58:38;;;;;;;8.05;4.68;;;14.50;99.90;;;;;;5074735;28;20055;-78
2022/10/10 13:01:17;;;;;;;8.30;5.05;;;14.90;99.90;;;;;;5073645;28;20131;-78
2022/10/10 13:03:46;;;;;;;10.05;5.13;;;15.40;99.90;;;;;;5074610;28;20456;-78
2022/10/10 13:06:40;;;;;;;8.43;5.00;;;15.00;99.90;;;;;;5074643;28;20044;-78
2022/10/10 13:09:16;;;;;;;10.95;4.78;;;15.00;99.90;;;;;;5072952;28;20073;-79
2022/10/10 13:11:55;;;;;;;9.48;5.00;;;15.00;99.90;;;;;;5074614;28;20044;-80
2022/10/10 13:14:21;;;;;;;10.23;5.25;;;15.00;99.90;;;;;;5074312;28;20047;-81